sensor_id;sensor_type;location;lat;lon;timestamp;temperature;humidity
70089;HTU21D;57460;47.134;19.888;2023-04-24T00:01:53;12.74;58.41
70089;HTU21D;57460;47.134;19.888;2023-04-24T00:04:18;12.86;54.39
70089;HTU21D;57460;47.134;19.888;2023-04-24T00:06:44;12.95;56.52
70089;HTU21D;57460;47.134;19.888;2023-04-24T00:09:14;12.99;54.94
70089;HTU21D;57460;47.134;19.888;2023-04-24T00:11:41;12.96;57.43
70089;HTU21D;57460;47.134;19.888;2023-04-24T00:14:07;12.95;56.96
70089;HTU21D;57460;47.134;19.888;2023-04-24T00:16:32;12.92;58.29
70089;HTU21D;57460;47.134;19.888;2023-04-24T00:18:58;12.93;56.30
70089;HTU21D;57460;47.134;19.888;2023-04-24T00:21:26;12.91;56.00
70089;HTU21D;57460;47.134;19.888;2023-04-24T00:23:52;12.87;58.42
70089;HTU21D;57460;47.134;19.888;2023-04-24T00:26:18;12.82;56.68
70089;HTU21D;57460;47.134;19.888;2023-04-24T00:28:44;12.80;54.96
70089;HTU21D;57460;47.134;19.888;2023-04-24T00:31:10;12.78;57.84
70089;HTU21D;57460;47.134;19.888;2023-04-24T00:33:36;12.74;59.31
70089;HTU21D;57460;47.134;19.888;2023-04-24T00:36:02;12.75;59.05
70089;HTU21D;57460;47.134;19.888;2023-04-24T00:38:27;12.76;58.77
70089;HTU21D;57460;47.134;19.888;2023-04-24T00:40:53;12.78;59.12
70089;HTU21D;57460;47.134;19.888;2023-04-24T00:43:19;12.81;58.06
70089;HTU21D;57460;47.134;19.888;2023-04-24T00:45:46;12.87;58.07
70089;HTU21D;57460;47.134;19.888;2023-04-24T00:48:12;12.89;58.32
70089;HTU21D;57460;47.134;19.888;2023-04-24T00:50:39;12.90;58.97
70089;HTU21D;57460;47.134;19.888;2023-04-24T00:53:05;12.91;58.64
70089;HTU21D;57460;47.134;19.888;2023-04-24T00:55:31;12.92;58.51
70089;HTU21D;57460;47.134;19.888;2023-04-24T00:57:58;12.96;56.63
70089;HTU21D;57460;47.134;19.888;2023-04-24T01:00:24;13.01;57.97
70089;HTU21D;57460;47.134;19.888;2023-04-24T01:02:51;13.02;58.63
70089;HTU21D;57460;47.134;19.888;2023-04-24T01:05:18;13.06;58.23
70089;HTU21D;57460;47.134;19.888;2023-04-24T01:07:46;13.08;58.05
70089;HTU21D;57460;47.134;19.888;2023-04-24T01:10:15;13.11;55.45
70089;HTU21D;57460;47.134;19.888;2023-04-24T01:12:41;13.14;56.63
70089;HTU21D;57460;47.134;19.888;2023-04-24T01:15:07;13.15;58.08
70089;HTU21D;57460;47.134;19.888;2023-04-24T01:17:33;13.16;58.20
70089;HTU21D;57460;47.134;19.888;2023-04-24T01:20:00;13.20;56.27
70089;HTU21D;57460;47.134;19.888;2023-04-24T01:22:26;13.24;54.57
70089;HTU21D;57460;47.134;19.888;2023-04-24T01:24:53;13.26;57.97
70089;HTU21D;57460;47.134;19.888;2023-04-24T01:27:19;13.26;58.10
70089;HTU21D;57460;47.134;19.888;2023-04-24T01:29:46;13.29;55.76
70089;HTU21D;57460;47.134;19.888;2023-04-24T01:32:15;13.32;55.44
70089;HTU21D;57460;47.134;19.888;2023-04-24T01:34:40;13.39;53.98
70089;HTU21D;57460;47.134;19.888;2023-04-24T01:37:06;13.48;52.59
70089;HTU21D;57460;47.134;19.888;2023-04-24T01:39:32;13.44;55.65
70089;HTU21D;57460;47.134;19.888;2023-04-24T01:42:00;13.38;55.42
70089;HTU21D;57460;47.134;19.888;2023-04-24T01:44:28;13.38;55.68
70089;HTU21D;57460;47.134;19.888;2023-04-24T01:46:55;13.36;55.83
70089;HTU21D;57460;47.134;19.888;2023-04-24T01:49:21;13.34;56.55
70089;HTU21D;57460;47.134;19.888;2023-04-24T01:51:47;13.34;54.94
70089;HTU21D;57460;47.134;19.888;2023-04-24T01:54:13;13.34;55.26
70089;HTU21D;57460;47.134;19.888;2023-04-24T01:56:43;13.33;54.70
70089;HTU21D;57460;47.134;19.888;2023-04-24T01:59:12;13.30;55.20
70089;HTU21D;57460;47.134;19.888;2023-04-24T02:01:39;13.24;57.62
70089;HTU21D;57460;47.134;19.888;2023-04-24T02:04:06;13.24;55.81
70089;HTU21D;57460;47.134;19.888;2023-04-24T02:06:32;13.26;55.09
70089;HTU21D;57460;47.134;19.888;2023-04-24T02:08:59;13.30;56.45
70089;HTU21D;57460;47.134;19.888;2023-04-24T02:11:25;13.30;56.74
70089;HTU21D;57460;47.134;19.888;2023-04-24T02:13:51;13.34;56.07
70089;HTU21D;57460;47.134;19.888;2023-04-24T02:16:18;13.45;53.11
70089;HTU21D;57460;47.134;19.888;2023-04-24T02:18:43;13.49;54.12
70089;HTU21D;57460;47.134;19.888;2023-04-24T02:21:10;13.48;55.10
70089;HTU21D;57460;47.134;19.888;2023-04-24T02:23:36;13.46;54.76
70089;HTU21D;57460;47.134;19.888;2023-04-24T02:26:02;13.40;56.80
70089;HTU21D;57460;47.134;19.888;2023-04-24T02:28:28;13.46;53.01
70089;HTU21D;57460;47.134;19.888;2023-04-24T02:30:53;13.35;58.44
70089;HTU21D;57460;47.134;19.888;2023-04-24T02:33:19;13.31;59.32
70089;HTU21D;57460;47.134;19.888;2023-04-24T02:35:45;13.29;59.95
70089;HTU21D;57460;47.134;19.888;2023-04-24T02:38:11;13.27;57.50
70089;HTU21D;57460;47.134;19.888;2023-04-24T02:40:36;13.27;57.66
70089;HTU21D;57460;47.134;19.888;2023-04-24T02:43:02;13.24;61.02
70089;HTU21D;57460;47.134;19.888;2023-04-24T02:45:28;13.22;60.47
70089;HTU21D;57460;47.134;19.888;2023-04-24T02:47:54;13.20;58.17
70089;HTU21D;57460;47.134;19.888;2023-04-24T02:50:20;13.16;61.50
70089;HTU21D;57460;47.134;19.888;2023-04-24T02:52:45;13.19;59.16
70089;HTU21D;57460;47.134;19.888;2023-04-24T02:55:11;13.27;58.62
70089;HTU21D;57460;47.134;19.888;2023-04-24T02:57:37;13.47;56.32
70089;HTU21D;57460;47.134;19.888;2023-04-24T03:00:03;13.64;56.07
70089;HTU21D;57460;47.134;19.888;2023-04-24T03:02:32;13.61;56.87
70089;HTU21D;57460;47.134;19.888;2023-04-24T03:04:59;13.62;63.28
70089;HTU21D;57460;47.134;19.888;2023-04-24T03:07:25;13.54;64.68
70089;HTU21D;57460;47.134;19.888;2023-04-24T03:09:50;13.48;60.03
70089;HTU21D;57460;47.134;19.888;2023-04-24T03:12:16;13.40;61.29
70089;HTU21D;57460;47.134;19.888;2023-04-24T03:14:43;13.34;60.54
70089;HTU21D;57460;47.134;19.888;2023-04-24T03:17:09;13.31;64.56
70089;HTU21D;57460;47.134;19.888;2023-04-24T03:19:35;13.08;64.01
70089;HTU21D;57460;47.134;19.888;2023-04-24T03:22:02;13.01;61.84
70089;HTU21D;57460;47.134;19.888;2023-04-24T03:24:28;12.97;62.34
70089;HTU21D;57460;47.134;19.888;2023-04-24T03:26:54;12.97;63.66
70089;HTU21D;57460;47.134;19.888;2023-04-24T03:29:21;13.00;61.92
70089;HTU21D;57460;47.134;19.888;2023-04-24T03:31:47;12.99;61.67
70089;HTU21D;57460;47.134;19.888;2023-04-24T03:34:12;12.80;68.78
70089;HTU21D;57460;47.134;19.888;2023-04-24T03:36:38;12.60;68.62
70089;HTU21D;57460;47.134;19.888;2023-04-24T03:39:04;12.41;65.98
70089;HTU21D;57460;47.134;19.888;2023-04-24T03:41:30;12.22;67.86
70089;HTU21D;57460;47.134;19.888;2023-04-24T03:43:56;12.16;64.13
70089;HTU21D;57460;47.134;19.888;2023-04-24T03:46:21;12.11;69.49
70089;HTU21D;57460;47.134;19.888;2023-04-24T03:48:47;12.10;71.61
70089;HTU21D;57460;47.134;19.888;2023-04-24T03:51:13;12.13;70.62
70089;HTU21D;57460;47.134;19.888;2023-04-24T03:53:39;12.20;68.58
70089;HTU21D;57460;47.134;19.888;2023-04-24T03:56:05;12.31;65.17
70089;HTU21D;57460;47.134;19.888;2023-04-24T03:58:30;12.36;68.01
70089;HTU21D;57460;47.134;19.888;2023-04-24T04:00:56;12.36;67.25
70089;HTU21D;57460;47.134;19.888;2023-04-24T04:03:23;12.42;67.05
70089;HTU21D;57460;47.134;19.888;2023-04-24T04:05:50;12.50;66.75
70089;HTU21D;57460;47.134;19.888;2023-04-24T04:08:16;12.59;62.41
70089;HTU21D;57460;47.134;19.888;2023-04-24T04:10:42;12.55;64.86
70089;HTU21D;57460;47.134;19.888;2023-04-24T04:13:08;12.46;70.74
70089;HTU21D;57460;47.134;19.888;2023-04-24T04:15:33;12.44;70.58
70089;HTU21D;57460;47.134;19.888;2023-04-24T04:17:59;12.42;69.81
70089;HTU21D;57460;47.134;19.888;2023-04-24T04:20:25;12.45;65.47
70089;HTU21D;57460;47.134;19.888;2023-04-24T04:22:51;12.51;66.88
70089;HTU21D;57460;47.134;19.888;2023-04-24T04:25:16;12.51;67.30
70089;HTU21D;57460;47.134;19.888;2023-04-24T04:27:45;12.49;68.24
70089;HTU21D;57460;47.134;19.888;2023-04-24T04:30:13;12.52;63.27
70089;HTU21D;57460;47.134;19.888;2023-04-24T04:32:39;12.49;67.69
70089;HTU21D;57460;47.134;19.888;2023-04-24T04:35:05;12.62;66.30
70089;HTU21D;57460;47.134;19.888;2023-04-24T04:37:32;12.67;68.69
70089;HTU21D;57460;47.134;19.888;2023-04-24T04:39:59;12.67;64.88
70089;HTU21D;57460;47.134;19.888;2023-04-24T04:42:26;12.69;65.52
70089;HTU21D;57460;47.134;19.888;2023-04-24T04:44:52;12.67;67.49
70089;HTU21D;57460;47.134;19.888;2023-04-24T04:47:21;12.71;68.72
70089;HTU21D;57460;47.134;19.888;2023-04-24T04:49:50;12.78;67.83
70089;HTU21D;57460;47.134;19.888;2023-04-24T04:52:19;12.82;68.28
70089;HTU21D;57460;47.134;19.888;2023-04-24T04:54:45;12.87;67.25
70089;HTU21D;57460;47.134;19.888;2023-04-24T04:57:11;12.87;68.72
70089;HTU21D;57460;47.134;19.888;2023-04-24T04:59:37;12.86;64.92
70089;HTU21D;57460;47.134;19.888;2023-04-24T05:02:03;12.84;68.34
70089;HTU21D;57460;47.134;19.888;2023-04-24T05:04:29;12.84;67.52
70089;HTU21D;57460;47.134;19.888;2023-04-24T05:06:55;12.88;67.07
70089;HTU21D;57460;47.134;19.888;2023-04-24T05:09:21;13.02;65.75
70089;HTU21D;57460;47.134;19.888;2023-04-24T05:11:47;13.12;66.13
70089;HTU21D;57460;47.134;19.888;2023-04-24T05:14:13;13.16;67.30
70089;HTU21D;57460;47.134;19.888;2023-04-24T05:16:39;13.16;65.52
70089;HTU21D;57460;47.134;19.888;2023-04-24T05:19:05;13.02;69.46
70089;HTU21D;57460;47.134;19.888;2023-04-24T05:21:50;12.99;68.17
70089;HTU21D;57460;47.134;19.888;2023-04-24T05:24:16;13.06;71.37
70089;HTU21D;57460;47.134;19.888;2023-04-24T05:26:42;13.09;67.52
70089;HTU21D;57460;47.134;19.888;2023-04-24T05:29:07;13.06;65.69
70089;HTU21D;57460;47.134;19.888;2023-04-24T05:31:33;13.05;71.74
70089;HTU21D;57460;47.134;19.888;2023-04-24T05:33:59;12.91;72.64
70089;HTU21D;57460;47.134;19.888;2023-04-24T05:36:24;12.93;69.36
70089;HTU21D;57460;47.134;19.888;2023-04-24T05:38:50;12.96;68.69
70089;HTU21D;57460;47.134;19.888;2023-04-24T05:41:16;13.02;70.95
70089;HTU21D;57460;47.134;19.888;2023-04-24T05:43:41;13.03;72.34
70089;HTU21D;57460;47.134;19.888;2023-04-24T05:46:07;13.08;68.58
70089;HTU21D;57460;47.134;19.888;2023-04-24T05:48:33;13.05;71.72
70089;HTU21D;57460;47.134;19.888;2023-04-24T05:50:59;13.06;68.56
70089;HTU21D;57460;47.134;19.888;2023-04-24T05:53:25;12.99;70.93
70089;HTU21D;57460;47.134;19.888;2023-04-24T05:55:50;13.02;68.84
70089;HTU21D;57460;47.134;19.888;2023-04-24T05:58:16;13.06;72.38
70089;HTU21D;57460;47.134;19.888;2023-04-24T06:00:42;13.14;69.63
70089;HTU21D;57460;47.134;19.888;2023-04-24T06:03:08;13.23;68.23
70089;HTU21D;57460;47.134;19.888;2023-04-24T06:05:34;13.27;69.29
70089;HTU21D;57460;47.134;19.888;2023-04-24T06:08:19;13.36;70.17
70089;HTU21D;57460;47.134;19.888;2023-04-24T06:10:45;13.46;68.71
70089;HTU21D;57460;47.134;19.888;2023-04-24T06:13:11;13.56;70.42
70089;HTU21D;57460;47.134;19.888;2023-04-24T06:15:37;13.60;73.14
70089;HTU21D;57460;47.134;19.888;2023-04-24T06:18:03;13.66;71.82
70089;HTU21D;57460;47.134;19.888;2023-04-24T06:20:29;13.69;71.05
70089;HTU21D;57460;47.134;19.888;2023-04-24T06:22:55;13.81;69.13
70089;HTU21D;57460;47.134;19.888;2023-04-24T06:25:21;13.85;70.77
70089;HTU21D;57460;47.134;19.888;2023-04-24T06:27:46;13.99;68.81
70089;HTU21D;57460;47.134;19.888;2023-04-24T06:30:12;14.08;69.72
70089;HTU21D;57460;47.134;19.888;2023-04-24T06:32:39;14.15;69.10
70089;HTU21D;57460;47.134;19.888;2023-04-24T06:35:05;14.24;70.02
70089;HTU21D;57460;47.134;19.888;2023-04-24T06:37:33;14.25;70.86
70089;HTU21D;57460;47.134;19.888;2023-04-24T06:39:59;14.30;66.59
70089;HTU21D;57460;47.134;19.888;2023-04-24T06:42:24;14.26;72.01
70089;HTU21D;57460;47.134;19.888;2023-04-24T06:44:50;14.36;65.71
70089;HTU21D;57460;47.134;19.888;2023-04-24T06:47:16;14.38;68.14
70089;HTU21D;57460;47.134;19.888;2023-04-24T06:49:42;14.43;71.22
70089;HTU21D;57460;47.134;19.888;2023-04-24T06:52:08;14.44;70.75
70089;HTU21D;57460;47.134;19.888;2023-04-24T06:54:34;14.47;69.94
70089;HTU21D;57460;47.134;19.888;2023-04-24T06:57:00;14.47;69.98
70089;HTU21D;57460;47.134;19.888;2023-04-24T06:59:27;14.54;70.63
70089;HTU21D;57460;47.134;19.888;2023-04-24T07:01:54;14.62;68.38
70089;HTU21D;57460;47.134;19.888;2023-04-24T07:04:20;14.63;68.27
70089;HTU21D;57460;47.134;19.888;2023-04-24T07:06:46;14.63;67.68
70089;HTU21D;57460;47.134;19.888;2023-04-24T07:09:12;14.47;70.26
70089;HTU21D;57460;47.134;19.888;2023-04-24T07:11:44;14.49;68.42
70089;HTU21D;57460;47.134;19.888;2023-04-24T07:14:10;14.37;71.49
70089;HTU21D;57460;47.134;19.888;2023-04-24T07:16:36;14.37;69.04
70089;HTU21D;57460;47.134;19.888;2023-04-24T07:19:02;14.39;72.95
70089;HTU21D;57460;47.134;19.888;2023-04-24T07:21:28;14.47;69.61
70089;HTU21D;57460;47.134;19.888;2023-04-24T07:23:53;14.45;73.97
70089;HTU21D;57460;47.134;19.888;2023-04-24T07:26:20;14.55;70.70
70089;HTU21D;57460;47.134;19.888;2023-04-24T07:28:46;14.59;72.51
70089;HTU21D;57460;47.134;19.888;2023-04-24T07:31:12;14.66;70.46
70089;HTU21D;57460;47.134;19.888;2023-04-24T07:33:38;14.69;71.32
70089;HTU21D;57460;47.134;19.888;2023-04-24T07:36:04;14.64;71.39
70089;HTU21D;57460;47.134;19.888;2023-04-24T07:38:30;14.67;69.30
70089;HTU21D;57460;47.134;19.888;2023-04-24T07:40:56;14.60;72.14
70089;HTU21D;57460;47.134;19.888;2023-04-24T07:43:22;14.67;70.94
70089;HTU21D;57460;47.134;19.888;2023-04-24T07:45:52;14.63;71.73
70089;HTU21D;57460;47.134;19.888;2023-04-24T07:48:18;14.62;73.32
70089;HTU21D;57460;47.134;19.888;2023-04-24T07:50:46;14.70;72.64
70089;HTU21D;57460;47.134;19.888;2023-04-24T07:53:12;14.71;70.91
70089;HTU21D;57460;47.134;19.888;2023-04-24T07:55:38;14.82;72.52
70089;HTU21D;57460;47.134;19.888;2023-04-24T07:58:04;14.95;71.84
70089;HTU21D;57460;47.134;19.888;2023-04-24T08:00:29;15.07;70.77
70089;HTU21D;57460;47.134;19.888;2023-04-24T08:02:55;15.16;70.68
70089;HTU21D;57460;47.134;19.888;2023-04-24T08:05:21;15.33;69.61
70089;HTU21D;57460;47.134;19.888;2023-04-24T08:07:46;15.45;69.65
70089;HTU21D;57460;47.134;19.888;2023-04-24T08:10:14;15.49;69.42
70089;HTU21D;57460;47.134;19.888;2023-04-24T08:12:40;15.59;68.72
70089;HTU21D;57460;47.134;19.888;2023-04-24T08:15:06;15.58;68.26
70089;HTU21D;57460;47.134;19.888;2023-04-24T08:17:34;15.71;69.07
70089;HTU21D;57460;47.134;19.888;2023-04-24T08:20:00;15.92;68.03
70089;HTU21D;57460;47.134;19.888;2023-04-24T08:22:27;16.01;70.19
70089;HTU21D;57460;47.134;19.888;2023-04-24T08:24:54;16.25;67.43
70089;HTU21D;57460;47.134;19.888;2023-04-24T08:27:20;16.33;68.48
70089;HTU21D;57460;47.134;19.888;2023-04-24T08:29:45;16.43;68.02
70089;HTU21D;57460;47.134;19.888;2023-04-24T08:32:11;16.43;66.84
70089;HTU21D;57460;47.134;19.888;2023-04-24T08:34:37;16.42;67.05
70089;HTU21D;57460;47.134;19.888;2023-04-24T08:37:03;16.42;68.02
70089;HTU21D;57460;47.134;19.888;2023-04-24T08:39:29;16.45;67.22
70089;HTU21D;57460;47.134;19.888;2023-04-24T08:41:56;16.47;67.54
70089;HTU21D;57460;47.134;19.888;2023-04-24T08:44:22;16.35;67.94
70089;HTU21D;57460;47.134;19.888;2023-04-24T08:46:48;16.35;67.14
70089;HTU21D;57460;47.134;19.888;2023-04-24T08:49:15;16.22;68.62
70089;HTU21D;57460;47.134;19.888;2023-04-24T08:51:45;16.21;68.44
70089;HTU21D;57460;47.134;19.888;2023-04-24T08:54:12;16.29;67.36
70089;HTU21D;57460;47.134;19.888;2023-04-24T08:56:40;16.37;67.84
70089;HTU21D;57460;47.134;19.888;2023-04-24T08:59:09;16.33;67.77
70089;HTU21D;57460;47.134;19.888;2023-04-24T09:01:37;16.26;69.46
70089;HTU21D;57460;47.134;19.888;2023-04-24T09:04:07;16.26;68.18
70089;HTU21D;57460;47.134;19.888;2023-04-24T09:06:35;16.28;69.55
70089;HTU21D;57460;47.134;19.888;2023-04-24T09:09:02;16.32;69.52
70089;HTU21D;57460;47.134;19.888;2023-04-24T09:11:31;16.40;68.55
70089;HTU21D;57460;47.134;19.888;2023-04-24T09:13:58;16.55;68.58
70089;HTU21D;57460;47.134;19.888;2023-04-24T09:16:25;16.72;67.47
70089;HTU21D;57460;47.134;19.888;2023-04-24T09:18:52;16.90;67.24
70089;HTU21D;57460;47.134;19.888;2023-04-24T09:21:20;17.08;68.67
70089;HTU21D;57460;47.134;19.888;2023-04-24T09:23:46;17.39;65.43
70089;HTU21D;57460;47.134;19.888;2023-04-24T09:26:12;17.70;66.59
70089;HTU21D;57460;47.134;19.888;2023-04-24T09:28:41;17.95;63.98
70089;HTU21D;57460;47.134;19.888;2023-04-24T09:31:17;18.08;63.44
70089;HTU21D;57460;47.134;19.888;2023-04-24T09:34:01;18.09;65.37
70089;HTU21D;57460;47.134;19.888;2023-04-24T09:36:34;18.18;63.48
70089;HTU21D;57460;47.134;19.888;2023-04-24T09:39:07;18.26;63.11
70089;HTU21D;57460;47.134;19.888;2023-04-24T09:41:33;18.34;63.94
70089;HTU21D;57460;47.134;19.888;2023-04-24T09:44:14;18.51;62.23
70089;HTU21D;57460;47.134;19.888;2023-04-24T09:46:49;18.47;62.80
70089;HTU21D;57460;47.134;19.888;2023-04-24T09:49:22;18.48;62.46
70089;HTU21D;57460;47.134;19.888;2023-04-24T09:51:48;18.50;62.31
70089;HTU21D;57460;47.134;19.888;2023-04-24T09:54:21;18.51;62.37
70089;HTU21D;57460;47.134;19.888;2023-04-24T09:56:49;18.64;62.42
70089;HTU21D;57460;47.134;19.888;2023-04-24T09:59:17;18.80;61.49
70089;HTU21D;57460;47.134;19.888;2023-04-24T10:01:44;18.86;61.18
70089;HTU21D;57460;47.134;19.888;2023-04-24T10:04:26;18.97;60.87
70089;HTU21D;57460;47.134;19.888;2023-04-24T10:06:55;19.10;60.89
70089;HTU21D;57460;47.134;19.888;2023-04-24T10:09:24;19.14;60.99
70089;HTU21D;57460;47.134;19.888;2023-04-24T10:11:53;19.21;60.83
70089;HTU21D;57460;47.134;19.888;2023-04-24T10:14:22;19.37;60.28
70089;HTU21D;57460;47.134;19.888;2023-04-24T10:16:49;19.58;59.25
70089;HTU21D;57460;47.134;19.888;2023-04-24T10:19:16;19.67;58.51
70089;HTU21D;57460;47.134;19.888;2023-04-24T10:21:45;19.76;59.46
70089;HTU21D;57460;47.134;19.888;2023-04-24T10:24:14;19.96;59.11
70089;HTU21D;57460;47.134;19.888;2023-04-24T10:26:41;20.21;57.98
70089;HTU21D;57460;47.134;19.888;2023-04-24T10:29:07;20.48;57.75
70089;HTU21D;57460;47.134;19.888;2023-04-24T10:31:37;20.78;57.83
70089;HTU21D;57460;47.134;19.888;2023-04-24T10:34:05;20.98;55.35
70089;HTU21D;57460;47.134;19.888;2023-04-24T10:36:33;20.86;55.41
70089;HTU21D;57460;47.134;19.888;2023-04-24T10:39:02;20.95;56.41
70089;HTU21D;57460;47.134;19.888;2023-04-24T10:41:30;21.20;53.87
70089;HTU21D;57460;47.134;19.888;2023-04-24T10:44:10;21.40;52.44
70089;HTU21D;57460;47.134;19.888;2023-04-24T10:46:37;21.58;55.33
70089;HTU21D;57460;47.134;19.888;2023-04-24T10:49:05;21.64;54.60
70089;HTU21D;57460;47.134;19.888;2023-04-24T10:51:52;21.74;53.97
70089;HTU21D;57460;47.134;19.888;2023-04-24T10:55:04;21.32;50.40
70089;HTU21D;57460;47.134;19.888;2023-04-24T10:59:46;21.14;54.41
70089;HTU21D;57460;47.134;19.888;2023-04-24T11:02:16;21.11;54.10
70089;HTU21D;57460;47.134;19.888;2023-04-24T11:04:43;21.06;54.24
70089;HTU21D;57460;47.134;19.888;2023-04-24T11:07:11;21.11;53.83
70089;HTU21D;57460;47.134;19.888;2023-04-24T11:09:37;21.23;53.68
70089;HTU21D;57460;47.134;19.888;2023-04-24T11:12:12;21.29;53.36
70089;HTU21D;57460;47.134;19.888;2023-04-24T11:15:02;21.08;52.34
70089;HTU21D;57460;47.134;19.888;2023-04-24T11:17:38;20.99;53.45
70089;HTU21D;57460;47.134;19.888;2023-04-24T11:20:16;21.07;53.94
70089;HTU21D;57460;47.134;19.888;2023-04-24T11:22:42;21.16;52.26
70089;HTU21D;57460;47.134;19.888;2023-04-24T11:25:09;21.30;52.98
70089;HTU21D;57460;47.134;19.888;2023-04-24T11:27:44;21.27;51.69
70089;HTU21D;57460;47.134;19.888;2023-04-24T11:30:11;21.16;52.43
70089;HTU21D;57460;47.134;19.888;2023-04-24T11:32:40;21.01;52.71
70089;HTU21D;57460;47.134;19.888;2023-04-24T11:35:20;21.01;51.04
70089;HTU21D;57460;47.134;19.888;2023-04-24T11:37:53;21.08;51.71
70089;HTU21D;57460;47.134;19.888;2023-04-24T11:40:21;21.11;52.02
70089;HTU21D;57460;47.134;19.888;2023-04-24T11:42:52;21.36;51.68
70089;HTU21D;57460;47.134;19.888;2023-04-24T11:45:25;21.44;51.77
70089;HTU21D;57460;47.134;19.888;2023-04-24T11:47:52;21.25;50.72
70089;HTU21D;57460;47.134;19.888;2023-04-24T11:50:21;21.15;52.50
70089;HTU21D;57460;47.134;19.888;2023-04-24T11:52:49;21.08;51.33
70089;HTU21D;57460;47.134;19.888;2023-04-24T11:57:49;20.74;53.25
70089;HTU21D;57460;47.134;19.888;2023-04-24T12:00:22;20.70;53.49
70089;HTU21D;57460;47.134;19.888;2023-04-24T12:02:49;20.73;52.93
70089;HTU21D;57460;47.134;19.888;2023-04-24T12:05:26;20.45;54.20
70089;HTU21D;57460;47.134;19.888;2023-04-24T12:07:53;20.34;53.20
70089;HTU21D;57460;47.134;19.888;2023-04-24T12:10:24;20.26;53.49
70089;HTU21D;57460;47.134;19.888;2023-04-24T12:12:51;20.28;54.69
70089;HTU21D;57460;47.134;19.888;2023-04-24T12:15:19;20.35;54.04
70089;HTU21D;57460;47.134;19.888;2023-04-24T12:17:45;20.43;54.18
70089;HTU21D;57460;47.134;19.888;2023-04-24T12:20:12;20.41;54.83
70089;HTU21D;57460;47.134;19.888;2023-04-24T12:25:18;20.32;53.52
70089;HTU21D;57460;47.134;19.888;2023-04-24T12:27:45;20.49;53.30
70089;HTU21D;57460;47.134;19.888;2023-04-24T12:30:15;20.57;52.16
70089;HTU21D;57460;47.134;19.888;2023-04-24T12:32:49;20.77;52.68
70089;HTU21D;57460;47.134;19.888;2023-04-24T12:35:27;20.85;53.35
70089;HTU21D;57460;47.134;19.888;2023-04-24T12:37:53;20.88;52.04
70089;HTU21D;57460;47.134;19.888;2023-04-24T12:40:20;20.75;52.28
70089;HTU21D;57460;47.134;19.888;2023-04-24T12:42:48;20.62;51.53
70089;HTU21D;57460;47.134;19.888;2023-04-24T12:45:15;20.54;51.98
70089;HTU21D;57460;47.134;19.888;2023-04-24T12:47:43;20.48;51.79
70089;HTU21D;57460;47.134;19.888;2023-04-24T12:50:14;20.45;50.92
70089;HTU21D;57460;47.134;19.888;2023-04-24T12:52:42;20.29;52.33
70089;HTU21D;57460;47.134;19.888;2023-04-24T12:55:08;20.29;52.09
70089;HTU21D;57460;47.134;19.888;2023-04-24T12:57:36;20.29;51.09
70089;HTU21D;57460;47.134;19.888;2023-04-24T13:00:03;20.18;52.22
70089;HTU21D;57460;47.134;19.888;2023-04-24T13:02:30;20.14;51.59
70089;HTU21D;57460;47.134;19.888;2023-04-24T13:04:57;20.21;51.66
70089;HTU21D;57460;47.134;19.888;2023-04-24T13:07:24;20.06;53.04
70089;HTU21D;57460;47.134;19.888;2023-04-24T13:09:51;20.04;52.27
70089;HTU21D;57460;47.134;19.888;2023-04-24T13:12:18;19.87;52.83
70089;HTU21D;57460;47.134;19.888;2023-04-24T13:14:44;19.48;54.40
70089;HTU21D;57460;47.134;19.888;2023-04-24T13:17:11;19.38;55.50
70089;HTU21D;57460;47.134;19.888;2023-04-24T13:19:41;19.35;55.30
70089;HTU21D;57460;47.134;19.888;2023-04-24T13:22:10;19.21;55.87
70089;HTU21D;57460;47.134;19.888;2023-04-24T13:24:37;18.86;56.16
70089;HTU21D;57460;47.134;19.888;2023-04-24T13:27:04;18.65;57.34
70089;HTU21D;57460;47.134;19.888;2023-04-24T13:29:30;18.66;57.92
70089;HTU21D;57460;47.134;19.888;2023-04-24T13:31:55;18.68;57.24
70089;HTU21D;57460;47.134;19.888;2023-04-24T13:34:25;18.56;58.74
70089;HTU21D;57460;47.134;19.888;2023-04-24T13:36:52;18.56;57.96
70089;HTU21D;57460;47.134;19.888;2023-04-24T13:39:18;18.53;59.25
70089;HTU21D;57460;47.134;19.888;2023-04-24T13:41:44;18.66;57.87
70089;HTU21D;57460;47.134;19.888;2023-04-24T13:44:12;18.71;58.87
70089;HTU21D;57460;47.134;19.888;2023-04-24T13:46:38;18.72;58.70
70089;HTU21D;57460;47.134;19.888;2023-04-24T13:49:04;18.80;58.64
70089;HTU21D;57460;47.134;19.888;2023-04-24T13:51:30;18.73;59.40
70089;HTU21D;57460;47.134;19.888;2023-04-24T13:53:56;18.81;58.43
70089;HTU21D;57460;47.134;19.888;2023-04-24T13:56:22;18.81;59.08
70089;HTU21D;57460;47.134;19.888;2023-04-24T13:58:48;18.89;57.50
70089;HTU21D;57460;47.134;19.888;2023-04-24T14:01:14;18.77;58.73
70089;HTU21D;57460;47.134;19.888;2023-04-24T14:03:42;18.72;58.55
70089;HTU21D;57460;47.134;19.888;2023-04-24T14:06:08;18.65;59.62
70089;HTU21D;57460;47.134;19.888;2023-04-24T14:08:34;18.82;58.24
70089;HTU21D;57460;47.134;19.888;2023-04-24T14:11:00;18.85;58.06
70089;HTU21D;57460;47.134;19.888;2023-04-24T14:13:26;18.82;58.37
70089;HTU21D;57460;47.134;19.888;2023-04-24T14:15:53;18.76;59.05
70089;HTU21D;57460;47.134;19.888;2023-04-24T14:18:18;18.72;58.19
70089;HTU21D;57460;47.134;19.888;2023-04-24T14:20:44;18.76;59.79
70089;HTU21D;57460;47.134;19.888;2023-04-24T14:23:10;18.83;59.70
70089;HTU21D;57460;47.134;19.888;2023-04-24T14:25:36;18.92;58.12
70089;HTU21D;57460;47.134;19.888;2023-04-24T14:28:02;18.79;59.38
70089;HTU21D;57460;47.134;19.888;2023-04-24T14:30:28;18.74;59.90
70089;HTU21D;57460;47.134;19.888;2023-04-24T14:32:53;18.76;59.46
70089;HTU21D;57460;47.134;19.888;2023-04-24T14:35:19;18.76;59.79
70089;HTU21D;57460;47.134;19.888;2023-04-24T14:37:45;18.61;59.22
70089;HTU21D;57460;47.134;19.888;2023-04-24T14:40:11;18.63;60.47
70089;HTU21D;57460;47.134;19.888;2023-04-24T14:42:37;18.70;60.31
70089;HTU21D;57460;47.134;19.888;2023-04-24T14:45:03;18.70;60.29
70089;HTU21D;57460;47.134;19.888;2023-04-24T14:47:29;18.71;59.75
70089;HTU21D;57460;47.134;19.888;2023-04-24T14:49:54;18.61;60.85
70089;HTU21D;57460;47.134;19.888;2023-04-24T14:52:20;18.59;61.31
70089;HTU21D;57460;47.134;19.888;2023-04-24T14:54:46;18.67;61.71
70089;HTU21D;57460;47.134;19.888;2023-04-24T14:57:12;18.71;61.76
70089;HTU21D;57460;47.134;19.888;2023-04-24T14:59:38;18.73;61.16
70089;HTU21D;57460;47.134;19.888;2023-04-24T15:02:06;18.73;60.87
70089;HTU21D;57460;47.134;19.888;2023-04-24T15:04:31;18.70;59.97
70089;HTU21D;57460;47.134;19.888;2023-04-24T15:06:57;18.51;62.60
70089;HTU21D;57460;47.134;19.888;2023-04-24T15:09:24;18.62;61.17
70089;HTU21D;57460;47.134;19.888;2023-04-24T15:11:53;18.74;59.83